createdAt,value
2018-08-16T00:00:39.655Z,101607.03
2018-08-16T00:03:09.044Z,101610.13
2018-08-16T00:05:38.362Z,101607.91
2018-08-16T00:08:07.735Z,101598.80
2018-08-16T00:10:37.065Z,101598.57
2018-08-16T00:13:06.415Z,101595.82
2018-08-16T00:15:35.773Z,101604.67
2018-08-16T00:18:05.212Z,101597.79
2018-08-16T00:20:34.525Z,101601.09
2018-08-16T00:23:03.826Z,101603.02
2018-08-16T00:25:33.202Z,101607.47
2018-08-16T00:28:02.675Z,101610.52
2018-08-16T00:30:32.835Z,101603.80
2018-08-16T00:33:02.652Z,101606.63
2018-08-16T00:35:32.042Z,101607.95
2018-08-16T00:38:01.351Z,101602.53
2018-08-16T00:40:30.909Z,101605.34
2018-08-16T00:43:00.146Z,101604.31
2018-08-16T00:45:29.607Z,101603.91
2018-08-16T00:47:59.224Z,101597.88
2018-08-16T00:50:28.763Z,101599.17
2018-08-16T00:52:58.468Z,101600.48
2018-08-16T00:55:28.308Z,101600.55
2018-08-16T00:57:57.989Z,101602.01
2018-08-16T01:00:27.652Z,101600.73
2018-08-16T01:02:57.438Z,101604.37
2018-08-16T01:05:27.121Z,101599.11
2018-08-16T01:07:56.798Z,101595.63
2018-08-16T01:10:26.439Z,101593.41
2018-08-16T01:12:56.150Z,101594.02
2018-08-16T01:15:26.164Z,101593.84
2018-08-16T01:17:55.980Z,101595.68
2018-08-16T01:20:25.590Z,101591.38
2018-08-16T01:22:55.608Z,101591.91
2018-08-16T01:25:27.878Z,101586.56
2018-08-16T01:27:57.486Z,101593.30
2018-08-16T01:30:27.093Z,101591.71
2018-08-16T01:32:56.891Z,101596.69
2018-08-16T01:35:26.724Z,101592.91
2018-08-16T01:37:56.643Z,101593.44
2018-08-16T01:40:26.408Z,101600.40
2018-08-16T01:42:56.263Z,101596.83
2018-08-16T01:45:26.082Z,101602.01
2018-08-16T01:47:56.099Z,101602.47
2018-08-16T01:50:25.702Z,101603.55
2018-08-16T01:52:55.515Z,101595.63
2018-08-16T01:55:25.151Z,101594.78
2018-08-16T01:57:55.247Z,101598.38
2018-08-16T02:00:24.859Z,101595.83
2018-08-16T02:02:54.667Z,101594.75
2018-08-16T02:05:24.282Z,101588.60
2018-08-16T02:07:54.398Z,101592.05
2018-08-16T02:10:24.161Z,101591.45
2018-08-16T02:12:54.565Z,101593.78
2018-08-16T02:15:24.244Z,101594.95
2018-08-16T02:17:54.200Z,101590.95
2018-08-16T02:20:25.008Z,101592.50
2018-08-16T02:22:55.135Z,101587.73
2018-08-16T02:25:25.143Z,101597.05
2018-08-16T02:27:55.050Z,101595.48
2018-08-16T02:30:25.210Z,101597.14
2018-08-16T02:32:54.990Z,101596.94
2018-08-16T02:35:24.291Z,101593.63
2018-08-16T02:37:53.575Z,101593.32
2018-08-16T02:40:22.845Z,101594.42
2018-08-16T02:42:52.418Z,101593.37
2018-08-16T02:45:21.690Z,101595.22
2018-08-16T02:47:50.976Z,101591.67
2018-08-16T02:50:21.299Z,101591.83
2018-08-16T02:52:50.577Z,101585.88
2018-08-16T02:55:19.873Z,101591.75
2018-08-16T02:57:49.209Z,101586.47
2018-08-16T03:00:18.516Z,101586.86
2018-08-16T03:02:47.782Z,101582.66
2018-08-16T03:05:17.302Z,101584.17
2018-08-16T03:07:46.555Z,101579.00
2018-08-16T03:10:16.008Z,101574.23
2018-08-16T03:12:45.350Z,101575.16
2018-08-16T03:15:15.210Z,101576.59
2018-08-16T03:17:44.505Z,101576.06
2018-08-16T03:20:13.819Z,101568.30
2018-08-16T03:22:43.088Z,101573.52
2018-08-16T03:25:12.354Z,101569.09
2018-08-16T03:27:42.054Z,101572.03
2018-08-16T03:30:11.315Z,101564.98
2018-08-16T03:32:40.632Z,101562.55
2018-08-16T03:35:09.919Z,101559.53
2018-08-16T03:37:39.194Z,101569.72
2018-08-16T03:40:08.776Z,101568.77
2018-08-16T03:42:38.155Z,101568.56
2018-08-16T03:45:08.378Z,101562.78
2018-08-16T03:47:37.623Z,101563.23
2018-08-16T03:50:08.278Z,101567.29
2018-08-16T03:52:37.839Z,101560.94
2018-08-16T03:55:07.495Z,101564.47
2018-08-16T03:57:36.814Z,101562.78
2018-08-16T04:00:07.626Z,101567.22
2018-08-16T04:02:37.006Z,101565.53
2018-08-16T04:05:07.171Z,101564.21
2018-08-16T04:07:36.475Z,101561.21
2018-08-16T04:10:06.521Z,101565.27
2018-08-16T04:12:36.095Z,101563.44
2018-08-16T04:15:05.456Z,101566.31
2018-08-16T04:17:36.905Z,101562.13
2018-08-16T04:20:07.359Z,101559.78
2018-08-16T04:22:37.475Z,101561.80
2018-08-16T04:25:06.951Z,101559.52
2018-08-16T04:27:36.462Z,101562.13
2018-08-16T04:30:06.621Z,101564.42
2018-08-16T04:32:37.208Z,101563.05
2018-08-16T04:35:07.086Z,101563.77
2018-08-16T04:37:36.835Z,101561.92
2018-08-16T04:40:06.853Z,101560.82
2018-08-16T04:42:36.567Z,101557.09
2018-08-16T04:45:08.018Z,101558.91
2018-08-16T04:47:37.937Z,101565.98
2018-08-16T04:50:11.274Z,101559.13
2018-08-16T04:52:40.996Z,101562.39
2018-08-16T04:55:11.128Z,101562.05
2018-08-16T04:57:40.844Z,101559.37
2018-08-16T05:00:12.739Z,101561.84
2018-08-16T05:02:42.547Z,101569.07
2018-08-16T05:05:12.564Z,101564.53
2018-08-16T05:07:42.273Z,101564.33
2018-08-16T05:10:12.700Z,101567.55
2018-08-16T05:12:42.421Z,101564.88
2018-08-16T05:15:13.867Z,101560.53
2018-08-16T05:17:43.586Z,101566.71
2018-08-16T05:20:14.002Z,101570.34
2018-08-16T05:22:43.857Z,101567.92
2018-08-16T05:25:13.730Z,101567.91
2018-08-16T05:27:43.530Z,101564.63
2018-08-16T05:30:14.074Z,101565.64
2018-08-16T05:32:43.887Z,101567.40
2018-08-16T05:35:13.598Z,101565.47
2018-08-16T05:37:43.493Z,101570.79
2018-08-16T05:40:13.429Z,101568.55
2018-08-16T05:42:43.097Z,101567.91
2018-08-16T05:45:13.072Z,101561.20
2018-08-16T05:47:42.429Z,101569.73
2018-08-16T05:50:13.070Z,101572.81
2018-08-16T05:52:43.446Z,101565.17
2018-08-16T05:55:12.858Z,101567.67
2018-08-16T05:57:42.209Z,101560.20
2018-08-16T06:00:14.168Z,101560.08
2018-08-16T06:02:43.508Z,101562.09
2018-08-16T06:05:13.288Z,101553.97
2018-08-16T06:07:42.802Z,101549.51
2018-08-16T06:10:12.186Z,101554.30
2018-08-16T06:12:41.560Z,101549.86
2018-08-16T06:15:11.652Z,101546.40
2018-08-16T06:17:40.990Z,101544.07
2018-08-16T06:20:12.160Z,101544.59
2018-08-16T06:22:41.680Z,101542.80
2018-08-16T06:25:13.137Z,101542.13
2018-08-16T06:27:42.962Z,101539.56
2018-08-16T06:30:15.572Z,101539.78
2018-08-16T06:32:45.859Z,101543.83
2018-08-16T06:35:15.224Z,101536.08
2018-08-16T06:37:44.571Z,101536.16
2018-08-16T06:40:16.653Z,101538.37
2018-08-16T06:42:47.162Z,101534.31
2018-08-16T06:45:16.646Z,101534.00
2018-08-16T06:47:45.923Z,101534.30
2018-08-16T06:50:16.427Z,101532.61
2018-08-16T06:52:45.732Z,101524.44
2018-08-16T06:55:15.051Z,101520.52
2018-08-16T06:57:44.403Z,101524.28
2018-08-16T07:00:13.755Z,101521.64
2018-08-16T07:02:43.132Z,101508.42
2018-08-16T07:05:12.501Z,101516.38
2018-08-16T07:07:41.888Z,101512.41
2018-08-16T07:10:13.672Z,101515.47
2018-08-16T07:12:42.984Z,101511.34
2018-08-16T07:15:14.723Z,101506.11
2018-08-16T07:17:44.626Z,101499.91
2018-08-16T07:20:13.931Z,101504.37
2018-08-16T07:22:43.462Z,101505.75
2018-08-16T07:25:12.764Z,101508.36
2018-08-16T07:27:42.195Z,101503.22
2018-08-16T07:30:11.994Z,101499.52
2018-08-16T07:32:41.404Z,101499.73
2018-08-16T07:35:11.088Z,101500.81
2018-08-16T07:37:40.468Z,101498.20
2018-08-16T07:40:10.068Z,101498.50
2018-08-16T07:42:39.396Z,101499.28
2018-08-16T07:45:11.115Z,101492.42
2018-08-16T07:47:40.793Z,101493.91
2018-08-16T07:50:10.965Z,101491.92
2018-08-16T07:52:41.238Z,101489.00
2018-08-16T07:55:11.222Z,101492.62
2018-08-16T07:57:40.832Z,101486.71
2018-08-16T08:00:14.466Z,101492.86
2018-08-16T08:02:43.912Z,101492.16
2018-08-16T08:05:13.487Z,101485.22
2018-08-16T08:07:43.446Z,101486.59
2018-08-16T08:10:12.831Z,101483.52
2018-08-16T08:12:42.294Z,101481.00
2018-08-16T08:15:13.783Z,101481.48
2018-08-16T08:17:43.165Z,101484.51
2018-08-16T08:20:15.256Z,101477.04
2018-08-16T08:22:44.687Z,101475.19
2018-08-16T08:25:15.332Z,101472.28
2018-08-16T08:27:44.974Z,101481.07
2018-08-16T08:30:16.250Z,101475.06
2018-08-16T08:32:45.749Z,101473.52
2018-08-16T08:35:15.139Z,101473.00
2018-08-16T08:37:58.740Z,101463.38
2018-08-16T08:40:28.076Z,101472.44
2018-08-16T08:42:57.336Z,101466.41
2018-08-16T08:45:26.640Z,101465.40
2018-08-16T08:47:56.351Z,101462.03
2018-08-16T08:50:26.330Z,101454.33
2018-08-16T08:53:11.318Z,101461.71
2018-08-16T08:55:57.499Z,101453.67
2018-08-16T08:58:44.385Z,101445.29
2018-08-16T09:01:13.712Z,101441.03
2018-08-16T09:03:43.022Z,101449.59
2018-08-16T09:06:12.899Z,101450.18
2018-08-16T09:08:42.229Z,101446.13
2018-08-16T09:11:28.596Z,101440.41
2018-08-16T09:14:14.883Z,101434.38
2018-08-16T09:16:44.225Z,101437.55
2018-08-16T09:19:13.544Z,101435.91
2018-08-16T09:21:42.882Z,101419.64
2018-08-16T09:24:12.721Z,101417.51
2018-08-16T09:26:43.408Z,101425.41
2018-08-16T09:30:29.010Z,101421.44
2018-08-16T09:33:15.221Z,101415.58
2018-08-16T09:35:44.559Z,101413.97
2018-08-16T09:38:13.961Z,101418.32
2018-08-16T09:40:43.298Z,101417.88
2018-08-16T09:43:13.159Z,101407.34
2018-08-16T09:47:07.705Z,101408.31
2018-08-16T09:49:39.711Z,101398.16
2018-08-16T09:52:09.891Z,101395.83
2018-08-16T09:54:39.224Z,101393.31
2018-08-16T09:57:09.757Z,101386.33
2018-08-16T09:59:39.391Z,101390.72
2018-08-16T10:02:13.063Z,101384.37
2018-08-16T10:04:42.264Z,101384.87
2018-08-16T10:07:11.562Z,101379.27
2018-08-16T10:09:40.932Z,101395.03
2018-08-16T10:12:10.192Z,101377.43
2018-08-16T10:14:39.499Z,101386.69
2018-08-16T10:17:08.955Z,101372.14
2018-08-16T10:19:38.606Z,101370.16
2018-08-16T10:22:07.916Z,101365.37
2018-08-16T10:24:37.613Z,101370.55
2018-08-16T10:27:07.012Z,101366.09
2018-08-16T10:29:36.278Z,101355.47
2018-08-16T10:32:06.085Z,101365.87
2018-08-16T10:34:35.352Z,101374.45
2018-08-16T10:37:05.079Z,101368.58
2018-08-16T10:39:34.365Z,101352.76
2018-08-16T10:42:03.638Z,101377.03
2018-08-16T10:44:32.976Z,101365.40
2018-08-16T10:47:02.714Z,101360.09
2018-08-16T10:49:32.089Z,101352.34
2018-08-16T10:52:01.402Z,101362.82
2018-08-16T10:54:30.855Z,101358.09
2018-08-16T10:57:00.458Z,101352.44
2018-08-16T10:59:29.763Z,101351.91
2018-08-16T11:01:59.088Z,101345.77
2018-08-16T11:04:28.494Z,101340.18
2018-08-16T11:06:57.807Z,101334.63
2018-08-16T11:09:27.953Z,101336.50
2018-08-16T11:12:03.535Z,101344.05
2018-08-16T11:14:32.847Z,101332.52
2018-08-16T11:17:02.138Z,101333.39
2018-08-16T11:19:31.427Z,101321.80
2018-08-16T11:22:00.770Z,101332.50
2018-08-16T11:24:30.153Z,101331.30
2018-08-16T11:26:59.466Z,101322.98
2018-08-16T11:29:29.364Z,101322.34
2018-08-16T11:31:58.586Z,101317.07
2018-08-16T11:34:27.942Z,101321.35
2018-08-16T11:36:57.277Z,101310.77
2018-08-16T11:39:26.591Z,101309.41
2018-08-16T11:41:55.919Z,101306.52
2018-08-16T11:44:25.184Z,101303.11
2018-08-16T11:46:54.519Z,101303.67
2018-08-16T11:49:23.813Z,101308.86
2018-08-16T11:51:53.353Z,101307.05
2018-08-16T11:54:22.694Z,101301.12
2018-08-16T11:56:51.965Z,101311.05
2018-08-16T11:59:21.383Z,101306.28
2018-08-16T12:01:50.667Z,101301.17
2018-08-16T12:04:19.949Z,101303.47
2018-08-16T12:06:49.273Z,101307.20
2018-08-16T12:09:18.533Z,101289.12
2018-08-16T12:11:47.826Z,101296.83
2018-08-16T12:14:17.688Z,101288.60
2018-08-16T12:16:47.011Z,101287.36
2018-08-16T12:19:16.373Z,101299.70
2018-08-16T12:21:45.705Z,101290.92
2018-08-16T12:24:15.075Z,101275.72
2018-08-16T12:26:44.468Z,101279.83
2018-08-16T12:29:13.811Z,101280.58
2018-08-16T12:31:43.086Z,101261.52
2018-08-16T12:34:12.377Z,101257.34
2018-08-16T12:36:41.874Z,101257.92
2018-08-16T12:39:11.321Z,101257.96
2018-08-16T12:41:40.683Z,101258.08
2018-08-16T12:44:09.999Z,101261.97
2018-08-16T12:46:46.055Z,101256.56
2018-08-16T12:49:15.374Z,101251.10
2018-08-16T12:51:44.678Z,101247.88
2018-08-16T12:54:13.964Z,101252.46
2018-08-16T12:56:43.415Z,101249.80
2018-08-16T12:59:12.739Z,101248.13
2018-08-16T13:01:42.047Z,101242.89
2018-08-16T13:04:11.342Z,101237.58
2018-08-16T13:06:40.618Z,101235.48
2018-08-16T13:09:11.009Z,101243.26
2018-08-16T13:11:40.758Z,101235.42
2018-08-16T13:14:10.108Z,101230.28
2018-08-16T13:16:39.859Z,101228.23
2018-08-16T13:19:09.471Z,101222.41
2018-08-16T13:21:38.773Z,101224.99
2018-08-16T13:24:08.078Z,101218.06
2018-08-16T13:26:37.418Z,101212.19
2018-08-16T13:29:06.711Z,101216.41
2018-08-16T13:31:36.023Z,101211.25
2018-08-16T13:34:05.359Z,101210.11
2018-08-16T13:36:34.680Z,101194.72
2018-08-16T13:39:05.094Z,101198.38
2018-08-16T13:41:34.853Z,101196.72
2018-08-16T13:44:04.242Z,101187.38
2018-08-16T13:46:33.641Z,101190.90
2018-08-16T13:49:03.075Z,101196.48
2018-08-16T13:51:32.415Z,101186.09
2018-08-16T13:54:01.743Z,101183.77
2018-08-16T13:56:31.108Z,101171.53
2018-08-16T13:59:00.474Z,101178.10
2018-08-16T14:01:29.763Z,101180.84
2018-08-16T14:03:59.347Z,101178.46
2018-08-16T14:06:28.691Z,101182.66
2018-08-16T14:08:57.996Z,101179.69
2018-08-16T14:11:27.322Z,101176.76
2018-08-16T14:13:56.739Z,101164.31
2018-08-16T14:16:26.018Z,101173.38
2018-08-16T14:18:55.407Z,101171.31
2018-08-16T14:21:24.767Z,101170.09
2018-08-16T14:23:54.213Z,101176.42
2018-08-16T14:26:23.756Z,101166.91
2018-08-16T14:28:53.071Z,101165.94
2018-08-16T14:31:22.391Z,101161.78
2018-08-16T14:33:51.996Z,101165.55
2018-08-16T14:36:21.298Z,101165.40
2018-08-16T14:38:50.585Z,101158.78
2018-08-16T14:41:20.246Z,101160.69
2018-08-16T14:43:49.517Z,101161.15
2018-08-16T14:46:19.127Z,101157.61
2018-08-16T14:48:48.657Z,101151.11
2018-08-16T14:51:18.035Z,101152.73
2018-08-16T14:53:47.325Z,101145.03
2018-08-16T14:56:16.619Z,101148.80
2018-08-16T14:58:45.916Z,101141.07
2018-08-16T15:01:15.253Z,101151.89
2018-08-16T15:03:44.681Z,101146.87
2018-08-16T15:06:14.209Z,101144.41
2018-08-16T15:08:43.519Z,101145.94
2018-08-16T15:11:13.029Z,101151.79
2018-08-16T15:13:42.376Z,101145.89
2018-08-16T15:16:11.690Z,101136.88
2018-08-16T15:18:41.015Z,101137.30
2018-08-16T15:21:10.374Z,101146.16
2018-08-16T15:23:39.765Z,101145.43
2018-08-16T15:26:09.445Z,101140.60
2018-08-16T15:28:39.786Z,101143.04
2018-08-16T15:31:09.090Z,101150.92
2018-08-16T15:33:39.443Z,101135.16
2018-08-16T15:36:11.165Z,101133.97
2018-08-16T15:38:41.297Z,101128.02
2018-08-16T15:41:12.381Z,101132.16
2018-08-16T15:43:41.813Z,101132.03
2018-08-16T15:46:11.151Z,101130.75
2018-08-16T15:48:40.455Z,101129.63
2018-08-16T15:51:09.962Z,101122.10
2018-08-16T15:53:39.273Z,101122.48
2018-08-16T15:56:08.855Z,101123.16
2018-08-16T15:58:38.306Z,101131.29
2018-08-16T16:01:07.820Z,101124.47
2018-08-16T16:03:37.227Z,101120.78
2018-08-16T16:06:06.856Z,101125.79
2018-08-16T16:08:36.059Z,101122.02
2018-08-16T16:11:05.653Z,101120.53
2018-08-16T16:13:35.819Z,101113.38
2018-08-16T16:16:05.484Z,101107.42
2018-08-16T16:18:34.974Z,101106.55
2018-08-16T16:21:04.281Z,101108.71
2018-08-16T16:23:33.624Z,101114.49
2018-08-16T16:26:03.064Z,101108.17
2018-08-16T16:28:32.545Z,101109.80
2018-08-16T16:31:01.877Z,101112.38
2018-08-16T16:33:31.525Z,101105.06
2018-08-16T16:36:01.158Z,101102.86
2018-08-16T16:38:30.516Z,101104.15
2018-08-16T16:40:59.804Z,101099.26
2018-08-16T16:43:29.130Z,101104.48
2018-08-16T16:45:58.484Z,101101.49
2018-08-16T16:48:27.809Z,101103.12
2018-08-16T16:50:57.130Z,101099.61
2018-08-16T16:53:27.097Z,101101.42
2018-08-16T16:55:56.434Z,101099.86
2018-08-16T16:58:26.259Z,101098.34
2018-08-16T17:00:55.523Z,101099.00
2018-08-16T17:03:24.851Z,101099.77
2018-08-16T17:05:54.160Z,101104.47
2018-08-16T17:08:23.428Z,101096.29
2018-08-16T17:10:52.842Z,101099.15
2018-08-16T17:13:22.132Z,101101.19
2018-08-16T17:15:52.083Z,101103.66
2018-08-16T17:18:21.438Z,101098.64
2018-08-16T17:20:51.010Z,101098.19
2018-08-16T17:23:20.330Z,101093.94
2018-08-16T17:25:49.679Z,101092.91
2018-08-16T17:28:19.113Z,101088.23
2018-08-16T17:30:48.441Z,101091.12
2018-08-16T17:33:17.737Z,101093.98
2018-08-16T17:35:47.141Z,101095.92
2018-08-16T17:38:16.494Z,101095.30
2018-08-16T17:40:47.036Z,101095.07
2018-08-16T17:43:17.674Z,101093.26
2018-08-16T17:45:46.991Z,101094.97
2018-08-16T17:48:16.305Z,101087.14
2018-08-16T17:50:45.643Z,101092.81
2018-08-16T17:53:15.230Z,101092.31
2018-08-16T17:55:44.653Z,101098.02
2018-08-16T17:58:14.101Z,101090.81
2018-08-16T18:00:43.435Z,101091.27
2018-08-16T18:03:12.760Z,101099.48
2018-08-16T18:05:42.438Z,101101.02
2018-08-16T18:08:11.809Z,101102.71
2018-08-16T18:10:41.180Z,101104.73
2018-08-16T18:13:10.521Z,101104.72
2018-08-16T18:15:39.909Z,101110.34
2018-08-16T18:18:09.289Z,101105.05
2018-08-16T18:20:38.663Z,101097.49
2018-08-16T18:23:08.047Z,101101.67
2018-08-16T18:25:38.566Z,101100.34
2018-08-16T18:28:08.149Z,101098.41
2018-08-16T18:30:38.208Z,101100.36
2018-08-16T18:33:07.657Z,101098.95
2018-08-16T18:35:37.104Z,101102.31
2018-08-16T18:38:06.982Z,101105.11
2018-08-16T18:40:36.533Z,101112.38
2018-08-16T18:43:05.940Z,101108.73
2018-08-16T18:45:35.322Z,101113.44
2018-08-16T18:48:04.731Z,101117.34
2018-08-16T18:50:34.305Z,101115.39
2018-08-16T18:53:03.663Z,101117.05
2018-08-16T18:55:33.052Z,101122.63
2018-08-16T18:58:02.459Z,101120.39
2018-08-16T19:00:31.774Z,101121.48
2018-08-16T19:03:01.218Z,101120.06
2018-08-16T19:05:30.690Z,101128.63
2018-08-16T19:08:00.781Z,101127.77
2018-08-16T19:10:30.182Z,101126.56
2018-08-16T19:13:00.187Z,101126.77
2018-08-16T19:15:29.553Z,101121.70
2018-08-16T19:17:58.943Z,101127.81
2018-08-16T19:20:28.388Z,101129.48
2018-08-16T19:22:58.952Z,101125.89
2018-08-16T19:25:28.448Z,101125.88
2018-08-16T19:27:57.976Z,101126.42
2018-08-16T19:30:27.339Z,101127.41
2018-08-16T19:32:56.655Z,101125.69
2018-08-16T19:35:26.258Z,101142.88
2018-08-16T19:37:55.613Z,101153.08
2018-08-16T19:40:26.093Z,101138.92
2018-08-16T19:42:55.615Z,101138.14
2018-08-16T19:45:25.554Z,101142.26
2018-08-16T19:47:55.076Z,101143.38
2018-08-16T19:50:24.659Z,101143.38
2018-08-16T19:52:54.007Z,101140.54
2018-08-16T19:55:23.330Z,101143.02
2018-08-16T19:57:53.055Z,101143.92
2018-08-16T20:00:23.324Z,101147.30
2018-08-16T20:02:53.084Z,101149.59
2018-08-16T20:05:22.461Z,101152.79
2018-08-16T20:07:51.941Z,101147.12
2018-08-16T20:10:22.186Z,101149.67
2018-08-16T20:12:52.407Z,101147.23
2018-08-16T20:15:22.641Z,101136.87
2018-08-16T20:17:52.728Z,101144.39
2018-08-16T20:20:22.401Z,101150.15
2018-08-16T20:22:51.898Z,101147.68
2018-08-16T20:25:21.268Z,101144.64
2018-08-16T20:27:51.345Z,101151.61
2018-08-16T20:30:20.713Z,101146.65
2018-08-16T20:32:50.184Z,101148.42
2018-08-16T20:35:19.565Z,101147.62
2018-08-16T20:37:48.948Z,101151.38
2018-08-16T20:40:19.039Z,101142.75
2018-08-16T20:42:48.909Z,101158.02
2018-08-16T20:45:18.452Z,101146.55
2018-08-16T20:47:48.101Z,101157.17
2018-08-16T20:50:17.651Z,101153.50
2018-08-16T20:52:47.667Z,101159.09
2018-08-16T20:55:17.521Z,101151.38
2018-08-16T20:57:47.006Z,101158.45
2018-08-16T21:00:16.361Z,101160.50
2018-08-16T21:02:45.832Z,101160.64
2018-08-16T21:05:15.265Z,101165.42
2018-08-16T21:07:44.571Z,101170.50
2018-08-16T21:10:13.972Z,101172.63
2018-08-16T21:12:43.205Z,101169.13
2018-08-16T21:15:12.479Z,101175.56
2018-08-16T21:17:41.762Z,101171.39
2018-08-16T21:20:11.056Z,101168.44
2018-08-16T21:22:40.531Z,101175.70
2018-08-16T21:25:09.863Z,101178.78
2018-08-16T21:27:40.095Z,101176.11
2018-08-16T21:30:09.467Z,101176.73
2018-08-16T21:32:38.794Z,101179.03
2018-08-16T21:35:08.139Z,101180.64
2018-08-16T21:37:37.410Z,101180.48
2018-08-16T21:40:07.308Z,101186.63
2018-08-16T21:42:36.722Z,101180.83
2018-08-16T21:45:06.154Z,101181.84
2018-08-16T21:47:35.470Z,101188.02
2018-08-16T21:50:05.894Z,101185.25
2018-08-16T21:52:35.359Z,101191.89
2018-08-16T21:55:04.971Z,101193.98
2018-08-16T21:57:34.275Z,101197.67
2018-08-16T22:00:03.713Z,101197.95
2018-08-16T22:02:33.099Z,101195.73
2018-08-16T22:05:02.619Z,101201.83
2018-08-16T22:08:11.999Z,101205.19
2018-08-16T22:10:42.899Z,101204.84
2018-08-16T22:13:12.285Z,101204.92
2018-08-16T22:15:41.662Z,101210.03
2018-08-16T22:18:11.107Z,101217.45
2018-08-16T22:20:40.519Z,101213.59
2018-08-16T22:23:10.004Z,101219.38
2018-08-16T22:25:39.455Z,101221.51
2018-08-16T22:28:08.779Z,101221.52
2018-08-16T22:30:38.125Z,101223.02
2018-08-16T22:33:07.652Z,101219.73
2018-08-16T22:35:37.133Z,101224.65
2018-08-16T22:38:06.698Z,101219.84
2018-08-16T22:40:36.065Z,101220.58
2018-08-16T22:43:05.468Z,101220.20
2018-08-16T22:45:34.903Z,101227.30
2018-08-16T22:48:04.274Z,101230.24
2018-08-16T22:50:33.569Z,101234.66
2018-08-16T22:53:02.900Z,101238.02
2018-08-16T22:55:33.427Z,101229.12
2018-08-16T22:58:02.742Z,101237.18
2018-08-16T23:00:32.185Z,101233.81
2018-08-16T23:03:01.549Z,101234.48
2018-08-16T23:05:38.978Z,101233.05
2018-08-16T23:08:08.420Z,101235.69
2018-08-16T23:10:37.834Z,101236.44
2018-08-16T23:13:07.236Z,101236.48
2018-08-16T23:15:36.745Z,101231.08
2018-08-16T23:18:06.138Z,101241.70
2018-08-16T23:20:35.483Z,101241.53
2018-08-16T23:23:04.852Z,101230.95
2018-08-16T23:25:34.318Z,101239.84
2018-08-16T23:28:03.641Z,101235.83
2018-08-16T23:30:33.062Z,101226.36
2018-08-16T23:33:02.421Z,101233.75
2018-08-16T23:35:32.011Z,101227.30
2018-08-16T23:38:01.531Z,101234.58
2018-08-16T23:40:30.868Z,101233.67
2018-08-16T23:43:00.170Z,101228.59
2018-08-16T23:45:29.502Z,101225.96
2018-08-16T23:48:15.687Z,101220.59
2018-08-16T23:50:44.995Z,101221.11
2018-08-16T23:53:14.359Z,101229.31
2018-08-16T23:55:43.666Z,101226.38
2018-08-16T23:58:13.284Z,101225.22
